EW4888 Weather Reports


Display with metric or nautical units.
time (UTC)temp
F
wind
direction
speed
MPH
gust
MPH
rain 1hr
in
rain 24hr
in
rain mn
in
humidity
%
barometer
mb
20180919012122 71 180 0.0 0.0 0.00 0.06 0.06 83 1012.8
20180919011123 71 180 0.0 2.0 0.00 0.06 0.06 82 1012.6
20180919010124 71 180 0.0 2.0 0.00 0.06 0.06 81 1012.2
20180919005122 72 180 0.0 2.0 0.00 0.06 0.06 81 1012.2
20180919004122 71 168 2.0 4.0 0.00 0.06 0.06 82 1011.9
20180919003123 71 157 2.0 4.0 0.00 0.06 0.06 82 1011.9
20180919002124 73 135 0.0 3.0 0.00 0.06 0.06 77 1012.2
20180919001122 73 112 1.0 4.0 0.00 0.06 0.06 78 1012.3
20180919000122 74 0 0.0 2.0 0.00 0.06 0.06 78 1012.6
20180918235144 74 0 1.0 3.0 0.00 0.06 0.06 77 1012.6
20180918234122 75 360 0.0 0.0 0.00 0.06 0.06 77 1012.9
20180918233122 75 0 0.0 3.0 0.00 0.06 0.06 77 1012.9
20180918232123 75 0 1.0 3.0 0.00 0.06 0.06 78 1012.8
20180918231122 75 315 0.0 2.0 0.00 0.06 0.06 78 1013.3
20180918230123 74 0 1.0 3.0 0.00 0.06 0.06 78 1013.3
20180918225124 74 0 1.0 3.0 0.00 0.06 0.06 77 1013.3
20180918224123 74 355 3.0 4.0 0.00 0.06 0.06 77 1013.7
20180918223122 74 337 4.0 5.0 0.00 0.06 0.06 75 1013.8
20180918222123 75 25 5.0 7.0 0.00 0.06 0.06 73 1013.7
20180918221123 76 43 5.0 7.0 0.00 0.06 0.06 70 1013.7
20180918220123 76 38 6.0 9.0 0.00 0.06 0.06 70 1013.5
20180918215123 77 58 6.0 9.0 0.00 0.06 0.06 71 1013.5
20180918214123 77 70 5.0 7.0 0.00 0.06 0.06 71 1013.5
20180918213123 77 53 7.0 16.0 0.00 0.06 0.06 70 1013.3
20180918212127 77 45 2.0 11.0 0.00 0.06 0.06 70 1013.4
20180918211205 77 24 8.0 13.0 0.00 0.06 0.06 71 1013.5
20180918203123 80 24 7.0 12.0 0.00 0.06 0.06 68 1013.8
20180918202124 81 24 7.0 13.0 0.00 0.06 0.06 67 1013.8
20180918201123 81 54 4.0 11.0 0.00 0.06 0.06 65 1013.6
20180918200122 83 20 5.0 13.0 0.00 0.06 0.06 63 1013.6
20180918195126 85 328 3.0 6.0 0.00 0.06 0.06 60 1013.6
20180918194123 85 301 2.0 4.0 0.00 0.06 0.06 61 1013.5
20180918193122 84 292 2.0 4.0 0.00 0.06 0.06 61 1013.9
20180918192122 85 292 2.0 4.0 0.00 0.06 0.06 60 1013.9
20180918191123 85 306 2.0 4.0 0.00 0.06 0.06 59 1013.9
20180918190124 86 343 3.0 5.0 0.00 0.06 0.06 57 1013.8
20180918185122 88 307 2.0 4.0 0.00 0.06 0.06 54 1013.8
20180918184122 88 5 2.0 4.0 0.00 0.06 0.06 55 1013.9
20180918183131 88 14 2.0 4.0 0.00 0.06 0.06 54 1013.9
20180918182123 90 43 2.0 4.0 0.00 0.06 0.06 53 1014.1
20180918181122 89 344 3.0 6.0 0.00 0.06 0.06 53 1014.1
20180918180122 88 321 2.0 4.0 0.00 0.06 0.06 56 1014.1
20180918175122 87 331 2.0 4.0 0.00 0.06 0.06 58 1014.2
20180918174125 87 326 3.0 5.0 0.00 0.06 0.06 57 1014.3
20180918173122 87 291 2.0 4.0 0.00 0.06 0.06 57 1014.2
20180918172123 86 338 3.0 4.0 0.00 0.06 0.06 58 1014.1
20180918171126 86 6 3.0 5.0 0.00 0.06 0.06 60 1014.0
20180918170122 85 332 3.0 5.0 0.00 0.06 0.06 62 1014.3
20180918165123 87 186 1.0 3.0 0.00 0.06 0.06 60 1014.3
20180918164124 87 349 3.0 5.0 0.00 0.06 0.06 59 1014.3
20180918163122 85 26 3.0 4.0 0.00 0.06 0.06 63 1014.3
20180918162125 85 354 3.0 5.0 0.00 0.06 0.06 63 1014.3
20180918161122 86 321 2.0 4.0 0.00 0.06 0.06 57 1014.5
20180918160123 84 323 3.0 6.0 0.00 0.06 0.06 62 1014.3
20180918155234 85 292 3.0 6.0 0.00 0.06 0.06 60 1014.3
20180918154122 86 326 2.0 5.0 0.00 0.06 0.06 60 1014.3
20180918153125 85 358 3.0 4.0 0.00 0.06 0.06 59 1014.4
20180918152122 86 171 3.0 5.0 0.00 0.06 0.06 59 1014.4
20180918151122 85 223 4.0 7.0 0.00 0.06 0.06 59 1014.6
20180918150123 85 206 3.0 5.0 0.00 0.06 0.06 59 1014.5
20180918145123 84 215 3.0 6.0 0.00 0.06 0.06 62 1014.5
20180918144122 84 218 3.0 6.0 0.00 0.06 0.06 60 1014.5
20180918143127 84 198 2.0 4.0 0.00 0.06 0.06 63 1014.3
20180918142123 82 178 2.0 5.0 0.00 0.06 0.06 63 1014.4
20180918141122 81 170 3.0 4.0 0.00 0.06 0.06 66 1014.6
20180918140122 80 158 2.0 4.0 0.00 0.06 0.06 68 1014.4
20180918135123 79 158 2.0 4.0 0.00 0.06 0.06 70 1014.4
20180918134122 78 158 2.0 4.0 0.00 0.06 0.06 74 1014.6
20180918133248 77 158 2.0 4.0 0.00 0.06 0.06 78 1014.7
20180918094123 67 225 0.0 0.0 0.00 0.06 0.06 87 1013.9
20180918093122 67 225 0.0 0.0 0.00 0.06 0.06 87 1014.1
20180918092123 68 225 0.0 0.0 0.00 0.06 0.06 86 1013.8
20180918091123 68 225 0.0 0.0 0.00 0.06 0.06 84 1013.7
20180918090122 69 225 0.0 0.0 0.00 0.06 0.06 83 1013.7
20180918085126 69 225 0.0 2.0 0.00 0.06 0.06 82 1013.7
20180918084123 70 225 1.0 2.0 0.00 0.06 0.06 82 1013.6
20180918083123 71 225 0.0 2.0 0.00 0.06 0.06 80 1013.4
20180918082142 71 225 0.0 0.0 0.00 0.06 0.06 83 1013.6
20180918081126 70 225 0.0 0.0 0.00 0.06 0.06 84 1013.7
20180918080123 70 231 0.0 1.0 0.00 0.06 0.06 86 1013.7
20180918075122 69 247 0.0 2.0 0.00 0.06 0.06 88 1013.7
20180918074122 68 248 0.0 0.0 0.00 0.06 0.06 90 1013.7
20180918073122 68 248 0.0 0.0 0.00 0.06 0.06 90 1013.8
20180918072122 68 248 0.0 0.0 0.00 0.06 0.06 88 1013.8
20180918071122 68 248 0.0 0.0 0.00 0.06 0.06 86 1013.8
20180918070124 68 248 0.0 0.0 0.00 0.06 0.06 85 1013.8
20180918065122 68 248 0.0 0.0 0.00 0.06 0.06 85 1013.9
20180918064123 68 248 0.0 0.0 0.00 0.06 0.06 85 1013.9
20180918063122 68 248 0.0 0.0 0.00 0.06 0.06 83 1013.9
20180918062122 68 248 0.0 0.0 0.00 0.06 0.06 83 1013.9
20180918061123 69 248 0.0 0.0 0.06 0.06 0.06 83 1013.9
20180918060125 69 248 0.0 0.0 0.06 0.06 0.06 83 1013.9
20180918055122 69 248 0.0 0.0 0.06 0.06 0.06 83 1013.9
20180918054122 69 248 0.0 0.0 0.06 0.06 0.06 84 1013.9
20180918053122 69 248 0.0 0.0 0.06 0.06 0.06 85 1013.9
20180918052122 70 248 0.0 0.0 0.06 0.06 0.06 85 1013.9
20180918051127 70 248 0.0 0.0 0.00 0.00 0.00 85 1014.0
20180918050122 70 248 0.0 0.0 0.00 0.00 0.00 85 1014.0
20180918045122 70 248 0.0 0.0 0.00 0.00 0.00 85 1014.0
20180918044123 70 248 0.0 0.0 0.00 0.00 0.00 85 1014.0
20180918043124 70 248 0.0 0.0 0.00 0.00 0.00 85 1013.9
20180918042122 70 248 0.0 0.0 0.00 0.00 0.00 85 1014.0
20180918041122 70 248 0.0 0.0 0.00 0.00 0.00 85 1013.9
20180918040122 70 248 0.0 0.0 0.00 0.00 0.00 85 1013.9
20180918035123 70 248 0.0 0.0 0.00 0.00 0.00 83 1013.9
20180918034123 70 248 0.0 0.0 0.00 0.00 0.00 83 1013.8
20180918033333 70 247 0.0 2.0 0.00 0.00 0.00 84 1013.7
20180918032218 71 247 0.0 2.0 0.00 0.00 0.00 83 1013.6
20180918022124 73 270 0.0 0.0 0.00 0.00 0.00 76 1013.5
20180918021123 73 270 0.0 0.0 0.00 0.00 0.00 74 1013.5
20180918020122 73 270 0.0 0.0 0.00 0.00 0.00 76 1013.3
20180918015122 73 270 0.0 0.0 0.00 0.00 0.00 76 1013.3
20180918014125 74 270 0.0 0.0 0.00 0.00 0.00 76 1013.3
20180918013123 74 270 0.0 0.0 0.00 0.00 0.00 72 1013.3